Time;durP1;ratioP1;P1;durP2;ratioP2;P2;SDS_P1;SDS_P2;PMS_P1;PMS_P2;Temp;Humidity;BMP_temperature;BMP_pressure;BME280_temperature;BME280_humidity;BME280_pressure;Samples;Min_cycle;Max_cycle;Signal;HPM_P1;HPM_P2
2021/12/20 00:01:37;;;;;;;18.70;4.82;;;;;;;7.73;100.00;102342.63;5078628;28;20075;-77
2021/12/20 00:04:04;;;;;;;25.10;5.18;;;;;;;7.74;100.00;102335.94;5077939;28;20047;-77
2021/12/20 00:06:31;;;;;;;16.85;4.07;;;;;;;7.69;100.00;102328.69;5082109;28;20094;-76
2021/12/20 00:08:58;;;;;;;16.02;4.38;;;;;;;7.73;100.00;102328.84;5076638;28;20121;-77
2021/12/20 00:11:25;;;;;;;14.93;4.43;;;;;;;7.69;100.00;102323.19;5067004;28;20098;-77
2021/12/20 00:13:51;;;;;;;19.42;4.68;;;;;;;7.72;100.00;102321.69;5072351;28;20127;-76
2021/12/20 00:16:18;;;;;;;19.98;4.63;;;;;;;7.73;100.00;102317.81;5074600;28;20075;-77
2021/12/20 00:18:44;;;;;;;19.58;4.20;;;;;;;7.72;100.00;102321.69;5085905;28;20039;-77
2021/12/20 00:21:11;;;;;;;35.10;5.85;;;;;;;7.70;100.00;102316.53;5076229;28;20501;-77
2021/12/20 00:23:38;;;;;;;14.77;4.63;;;;;;;7.70;100.00;102308.25;5079658;28;20044;-78
2021/12/20 00:26:04;;;;;;;21.17;4.63;;;;;;;7.66;100.00;102306.50;5068322;28;20059;-78
2021/12/20 00:28:31;;;;;;;17.13;4.35;;;;;;;7.71;100.00;102306.31;5077099;28;20134;-77
2021/12/20 00:30:57;;;;;;;16.67;4.38;;;;;;;7.69;100.00;102316.84;5077960;28;20401;-77
2021/12/20 00:33:28;;;;;;;26.15;4.45;;;;;;;7.69;100.00;102311.34;5070048;28;20040;-77
2021/12/20 00:35:54;;;;;;;18.80;4.57;;;;;;;7.67;100.00;102313.66;5079206;28;20044;-77
2021/12/20 00:41:06;;;;;;;21.63;3.95;;;;;;;7.63;100.00;102296.19;5067441;28;20720;-76
2021/12/20 00:43:32;;;;;;;20.50;4.25;;;;;;;7.68;100.00;102298.72;5088158;28;20058;-76
2021/12/20 00:45:59;;;;;;;23.40;4.45;;;;;;;7.68;100.00;102305.06;5083152;28;20413;-78
2021/12/20 00:48:26;;;;;;;17.17;4.00;;;;;;;7.69;100.00;102308.59;5078997;28;20139;-78
2021/12/20 00:50:52;;;;;;;18.80;4.05;;;;;;;7.69;100.00;102322.38;5077542;28;20134;-75
2021/12/20 00:53:19;;;;;;;17.08;3.90;;;;;;;7.66;100.00;102306.50;5073110;28;20858;-76
2021/12/20 00:55:45;;;;;;;22.20;4.13;;;;;;;7.63;100.00;102307.22;5077705;28;20040;-77
2021/12/20 00:58:12;;;;;;;25.63;5.43;;;;;;;7.58;100.00;102307.41;5078031;28;20044;-77
2021/12/20 01:00:42;;;;;;;18.50;4.32;;;;;;;7.62;100.00;102303.66;5078452;28;20138;-78
2021/12/20 01:03:10;;;;;;;26.02;4.50;;;;;;;7.59;100.00;102311.78;5085028;28;20074;-75
2021/12/20 01:05:38;;;;;;;15.38;3.28;;;;;;;7.59;100.00;102314.53;5077326;28;20048;-76
2021/12/20 01:08:07;;;;;;;21.75;3.53;;;;;;;7.58;100.00;102310.16;5070162;28;20595;-76
2021/12/20 01:10:36;;;;;;;17.27;3.88;;;;;;;7.60;100.00;102314.19;5078732;28;20056;-76
2021/12/20 01:13:04;;;;;;;20.45;3.92;;;;;;;7.61;100.00;102318.56;5067760;28;20056;-76
2021/12/20 01:15:36;;;;;;;25.58;4.60;;;;;;;7.60;100.00;102316.16;5075708;28;20054;-76
2021/12/20 01:18:05;;;;;;;23.55;4.07;;;;;;;7.60;100.00;102316.16;5073009;28;20147;-78
2021/12/20 01:20:34;;;;;;;21.02;3.58;;;;;;;7.59;100.00;102311.78;5072703;28;20072;-77
2021/12/20 01:23:00;;;;;;;29.00;6.40;;;;;;;7.55;100.00;102302.56;5076527;28;20554;-75
2021/12/20 01:25:27;;;;;;;26.95;4.15;;;;;;;7.57;100.00;102303.06;5068035;28;20069;-75
2021/12/20 01:27:55;;;;;;;18.42;3.13;;;;;;;7.56;100.00;102316.00;5072803;28;20512;-75
2021/12/20 01:30:24;;;;;;;27.10;4.05;;;;;;;7.57;100.00;102314.06;5075720;28;20044;-75
2021/12/20 01:32:51;;;;;;;17.95;3.97;;;;;;;7.54;100.00;102314.75;5083504;28;20207;-76
2021/12/20 01:35:20;;;;;;;18.00;3.85;;;;;;;7.50;100.00;102317.34;5070607;28;20067;-76
2021/12/20 01:37:46;;;;;;;26.35;3.88;;;;;;;7.50;100.00;102322.88;5066631;28;20048;-76
2021/12/20 01:40:15;;;;;;;20.88;3.75;;;;;;;7.50;100.00;102319.31;5078174;28;20060;-76
2021/12/20 01:42:42;;;;;;;18.73;3.80;;;;;;;7.50;100.00;102319.31;5073223;28;20051;-76
2021/12/20 01:45:18;;;;;;;21.27;3.72;;;;;;;7.47;100.00;102312.56;5067038;28;20052;-76
2021/12/20 01:47:49;;;;;;;21.65;4.28;;;;;;;7.45;100.00;102317.56;5074915;28;20048;-76
2021/12/20 01:50:34;;;;;;;;;;;;;;;;;;;;;
2021/12/20 01:52:49;;;;;;;25.73;3.55;;;;;;;7.43;100.00;102319.84;5078988;28;20412;-77
2021/12/20 01:55:19;;;;;;;19.45;4.07;;;;;;;7.46;100.00;102323.91;5088352;28;20063;-76
2021/12/20 01:57:46;;;;;;;27.25;4.03;;;;;;;7.45;100.00;102320.34;5075151;28;20419;-75
2021/12/20 02:00:19;;;;;;;14.88;3.20;;;;;;;7.46;100.00;102321.94;5079331;28;20873;-76
2021/12/20 02:02:46;;;;;;;19.85;3.83;;;;;;;7.45;100.00;102320.34;5076431;28;20090;-78
2021/12/20 02:05:21;;;;;;;22.27;3.83;;;;;;;7.44;100.00;102312.41;5075579;28;20402;-74
2021/12/20 02:10:15;;;;;;;19.23;3.58;;;;;;;7.44;100.00;102317.91;5071917;28;20098;-75
2021/12/20 02:12:42;;;;;;;17.80;3.67;;;;;;;7.44;100.00;102313.22;5072935;28;20080;-76
2021/12/20 02:15:08;;;;;;;15.60;3.53;;;;;;;7.43;100.00;102316.31;5072002;28;20055;-75
2021/12/20 02:17:35;;;;;;;23.23;3.72;;;;;;;7.43;100.00;102308.06;5074245;28;20515;-74
2021/12/20 02:20:03;;;;;;;24.58;3.70;;;;;;;7.46;100.00;102319.19;5077843;28;20044;-77
2021/12/20 02:22:30;;;;;;;24.15;4.47;;;;;;;7.49;100.00;102321.25;5077425;28;20079;-75
2021/12/20 02:24:56;;;;;;;19.40;4.05;;;;;;;7.49;100.00;102323.19;5086588;28;20492;-76
2021/12/20 02:27:23;;;;;;;17.20;4.10;;;;;;;7.50;100.00;102322.09;5071816;28;20131;-76
2021/12/20 02:30:12;;;;;;;27.52;4.03;;;;;;;7.50;100.00;102322.88;5072144;28;20083;-75
2021/12/20 02:38:28;;;;;;;19.95;4.38;;;;;;;7.43;100.00;102300.56;5070257;28;20163;-76
2021/12/20 02:41:15;;;;;;;17.70;3.88;;;;;;;7.41;100.00;102305.63;5071168;28;20163;-76
2021/12/20 02:43:57;;;;;;;19.92;4.18;;;;;;;7.41;100.00;102307.56;5079636;28;20058;-78
2021/12/20 02:48:57;;;;;;;23.98;3.80;;;;;;;7.44;100.00;102309.66;5071228;28;20166;-77
2021/12/20 02:51:26;;;;;;;19.98;5.20;;;;;;;7.39;100.00;102301.63;5080895;28;20117;-76
2021/12/20 02:53:55;;;;;;;21.33;4.25;;;;;;;7.41;100.00;102305.63;5072933;28;20059;-76
2021/12/20 02:56:22;;;;;;;26.00;4.55;;;;;;;7.41;100.00;102305.63;5082429;28;20071;-76
2021/12/20 02:58:49;;;;;;;19.10;4.55;;;;;;;7.41;100.00;102307.56;5078019;28;20064;-74
2021/12/20 03:01:15;;;;;;;19.60;3.63;;;;;;;7.40;100.00;102309.50;5071041;28;20131;-74
2021/12/20 03:03:43;;;;;;;22.90;4.07;;;;;;;7.39;100.00;102302.41;5078365;28;20048;-75
2021/12/20 03:06:24;;;;;;;27.60;5.03;;;;;;;7.38;100.00;102309.06;5078695;28;20531;-74
2021/12/20 03:08:53;;;;;;;22.45;3.85;;;;;;;7.36;100.00;102305.81;5069159;28;20056;-75
2021/12/20 03:11:21;;;;;;;20.45;3.47;;;;;;;7.38;100.00;102311.00;5067440;28;20067;-76
2021/12/20 03:13:52;;;;;;;21.60;4.43;;;;;;;7.38;100.00;102305.50;5069171;28;20052;-76
2021/12/20 03:16:20;;;;;;;18.33;3.83;;;;;;;7.39;100.00;102312.63;5069368;28;20049;-74
2021/12/20 03:18:46;;;;;;;16.83;3.88;;;;;;;7.39;100.00;102307.13;5075482;28;20127;-74
2021/12/20 03:21:13;;;;;;;22.77;3.80;;;;;;;7.38;100.00;102311.00;5086366;28;20162;-75
2021/12/20 03:23:40;;;;;;;27.45;4.15;;;;;;;7.36;100.00;102307.78;5080648;28;20513;-74
2021/12/20 03:26:06;;;;;;;21.65;3.85;;;;;;;7.35;100.00;102295.16;5082910;28;20412;-74
2021/12/20 03:28:33;;;;;;;23.67;3.58;;;;;;;7.34;100.00;102304.56;5081009;28;20052;-76
2021/12/20 03:30:59;;;;;;;18.17;4.32;;;;;;;7.35;100.00;102308.91;5069669;28;20059;-75
2021/12/20 03:33:26;;;;;;;23.65;4.65;;;;;;;7.33;100.00;102309.25;5068245;28;20141;-75
2021/12/20 03:35:52;;;;;;;24.10;4.72;;;;;;;7.34;100.00;102310.06;5072682;28;20043;-75
2021/12/20 03:38:19;;;;;;;23.48;4.30;;;;;;;7.34;100.00;102316.38;5069107;28;20052;-74
2021/12/20 03:40:45;;;;;;;23.48;4.13;;;;;;;7.31;100.00;102308.78;5068243;28;20076;-76
2021/12/20 03:43:13;;;;;;;19.98;3.95;;;;;;;7.31;100.00;102314.31;5067976;28;20056;-75
2021/12/20 03:45:41;;;;;;;16.92;3.72;;;;;;;7.31;100.00;102310.75;5067427;28;20504;-75
2021/12/20 03:48:08;;;;;;;17.80;4.65;;;;;;;7.29;100.00;102308.31;5068145;28;20040;-76
2021/12/20 03:50:35;;;;;;;25.27;4.50;;;;;;;7.30;100.00;102311.88;5086745;28;20551;-75
2021/12/20 03:53:01;;;;;;;22.92;4.55;;;;;;;7.28;100.00;102309.47;5077895;28;20059;-75
2021/12/20 03:55:28;;;;;;;24.63;4.50;;;;;;;7.28;100.00;102303.16;5068657;28;20062;-75
2021/12/20 03:57:54;;;;;;;23.40;4.55;;;;;;;7.28;100.00;102306.72;5079954;28;20074;-75
2021/12/20 04:00:21;;;;;;;22.88;4.22;;;;;;;7.25;100.00;102307.38;5080394;28;20086;-76
2021/12/20 04:02:48;;;;;;;24.95;4.72;;;;;;;7.26;100.00;102308.19;5072780;28;20052;-75
2021/12/20 04:05:16;;;;;;;19.23;4.03;;;;;;;7.25;100.00;102306.56;5081863;28;20135;-75
2021/12/20 04:07:42;;;;;;;18.42;3.85;;;;;;;7.23;100.00;102308.88;5068224;28;20048;-74
2021/12/20 04:10:09;;;;;;;25.50;3.55;;;;;;;7.22;100.00;102312.75;5074293;28;20140;-75
2021/12/20 04:12:36;;;;;;;27.23;4.20;;;;;;;7.22;100.00;102313.56;5075509;28;20051;-75
2021/12/20 04:15:05;;;;;;;28.02;4.65;;;;;;;7.19;100.00;102316.97;5068040;28;20084;-77
2021/12/20 04:17:32;;;;;;;22.48;4.20;;;;;;;7.16;100.00;102314.13;5070748;28;20079;-75
2021/12/20 04:19:58;;;;;;;22.38;4.47;;;;;;;7.16;100.00;102316.88;5079064;28;20098;-74
2021/12/20 04:22:25;;;;;;;22.08;4.18;;;;;;;7.15;100.00;102317.97;5067726;28;20148;-74
2021/12/20 04:24:51;;;;;;;21.45;3.72;;;;;;;7.16;100.00;102314.13;5070620;28;20059;-76
2021/12/20 04:27:18;;;;;;;26.63;3.88;;;;;;;7.17;100.00;102311.03;5067989;28;20479;-76
2021/12/20 04:29:44;;;;;;;21.08;4.28;;;;;;;7.17;100.00;102316.53;5080659;28;20052;-74
2021/12/20 04:32:11;;;;;;;20.80;3.72;;;;;;;7.17;100.00;102316.53;5067619;28;20051;-77
2021/12/20 04:34:37;;;;;;;25.75;5.18;;;;;;;7.17;100.00;102310.22;5068689;28;20483;-77
2021/12/20 04:37:07;;;;;;;18.10;3.55;;;;;;;7.14;100.00;102308.94;5079298;28;20036;-75
2021/12/20 04:39:34;;;;;;;27.20;4.20;;;;;;;7.15;100.00;102316.03;5068866;28;20177;-76
2021/12/20 04:42:00;;;;;;;25.50;4.43;;;;;;;7.14;100.00;102314.44;5078399;28;20055;-74
2021/12/20 04:44:27;;;;;;;28.48;4.03;;;;;;;7.14;100.00;102313.63;5070149;28;20055;-72
2021/12/20 04:46:53;;;;;;;24.95;4.28;;;;;;;7.11;100.00;102317.88;5067475;28;20047;-73
2021/12/20 04:49:20;;;;;;;26.25;4.32;;;;;;;7.11;100.00;102323.38;5091787;28;20056;-74
2021/12/20 04:51:47;;;;;;;28.33;4.40;;;;;;;7.11;100.00;102322.56;5071921;28;20678;-73
2021/12/20 04:54:16;;;;;;;22.38;4.00;;;;;;;7.08;100.00;102328.72;5067981;28;20463;-74
2021/12/20 04:56:43;;;;;;;22.88;3.20;;;;;;;7.08;100.00;102332.28;5075971;28;20056;-74
2021/12/20 04:59:10;;;;;;;22.25;3.15;;;;;;;7.06;100.00;102329.06;5079115;28;20134;-75
2021/12/20 05:01:36;;;;;;;25.05;3.30;;;;;;;7.05;100.00;102323.88;5068649;28;20052;-74
2021/12/20 05:04:03;;;;;;;21.10;3.38;;;;;;;7.01;100.00;102328.44;5074366;28;20057;-75
2021/12/20 05:06:33;;;;;;;19.10;3.88;;;;;;;7.03;100.00;102326.19;5072751;28;20055;-74
2021/12/20 05:09:03;;;;;;;32.25;3.80;;;;;;;7.03;100.00;102329.75;5067881;28;20160;-75
2021/12/20 05:11:33;;;;;;;25.17;4.28;;;;;;;7.00;100.00;102324.91;5065153;28;20425;-74
2021/12/20 05:14:01;;;;;;;24.90;3.88;;;;;;;7.02;100.00;102330.09;5067417;28;20056;-74
2021/12/20 05:16:28;;;;;;;25.98;4.28;;;;;;;6.98;100.00;102323.63;5067858;28;20051;-75
2021/12/20 05:18:55;;;;;;;23.30;4.45;;;;;;;6.94;100.00;102328.19;5074353;28;20497;-74
2021/12/20 05:21:21;;;;;;;19.25;3.20;;;;;;;6.90;100.00;102330.81;5082064;28;20048;-73
2021/12/20 05:23:48;;;;;;;18.17;4.18;;;;;;;6.88;100.00;102324.81;5066469;28;20080;-75
2021/12/20 05:26:14;;;;;;;28.90;4.78;;;;;;;6.86;100.00;102323.56;5068909;28;20049;-75
2021/12/20 05:28:41;;;;;;;21.58;3.60;;;;;;;6.76;100.00;102326.69;5077719;28;20123;-74
2021/12/20 05:31:07;;;;;;;21.05;3.95;;;;;;;6.79;100.00;102340.56;5073073;28;20044;-74
2021/12/20 05:33:34;;;;;;;26.08;3.92;;;;;;;6.73;100.00;102341.09;5072453;28;20048;-76
2021/12/20 05:36:01;;;;;;;26.63;4.05;;;;;;;6.63;100.00;102347.81;5084673;28;20044;-77
2021/12/20 05:38:46;;;;;;;25.88;4.05;;;;;;;6.60;100.00;102331.94;5071999;28;20063;-75
2021/12/20 05:41:12;;;;;;;24.98;3.80;;;;;;;6.53;100.00;102339.91;5069520;28;20063;-74
2021/12/20 05:43:39;;;;;;;26.20;4.20;;;;;;;6.47;100.00;102343.16;5071098;28;20055;-75
2021/12/20 05:46:10;;;;;;;34.45;4.80;;;;;;;6.39;100.00;102347.59;5071371;28;20056;-74
2021/12/20 05:48:36;;;;;;;30.80;4.30;;;;;;;6.35;100.00;102359.56;5078217;28;20055;-75
2021/12/20 05:51:03;;;;;;;28.88;3.38;;;;;;;6.26;100.00;102356.03;5079506;28;20052;-74
2021/12/20 05:53:30;;;;;;;25.30;3.95;;;;;;;6.21;100.00;102364.47;5071063;28;20052;-74
2021/12/20 05:55:56;;;;;;;35.58;5.50;;;;;;;6.10;100.00;102354.94;5084597;28;20138;-75
2021/12/20 05:58:23;;;;;;;24.25;4.88;;;;;;;6.05;100.00;102361.44;5081216;28;20414;-76
2021/12/20 06:00:49;;;;;;;23.08;4.90;;;;;;;5.97;100.00;102359.50;5075343;28;20094;-75
2021/12/20 06:03:16;;;;;;;27.73;4.43;;;;;;;5.92;100.00;102361.63;5079350;28;20167;-74
2021/12/20 06:05:43;;;;;;;29.95;4.20;;;;;;;5.85;100.00;102358.56;5071312;28;20836;-75
2021/12/20 06:08:10;;;;;;;22.50;3.97;;;;;;;5.76;100.00;102347.56;5070808;28;20045;-74
2021/12/20 06:10:37;;;;;;;30.40;4.25;;;;;;;5.72;100.00;102356.78;5071657;28;20131;-74
2021/12/20 06:13:04;;;;;;;24.98;4.93;;;;;;;5.64;100.00;102358.44;5074519;28;20052;-73
2021/12/20 06:15:31;;;;;;;20.48;4.03;;;;;;;5.57;100.00;102362.78;5069456;28;20139;-74
2021/12/20 06:17:58;;;;;;;17.15;3.55;;;;;;;5.51;100.00;102358.56;5076760;28;20580;-74
2021/12/20 06:20:26;;;;;;;15.30;3.67;;;;;;;5.47;100.00;102363.09;5087186;28;20058;-73
2021/12/20 06:22:52;;;;;;;23.30;3.88;;;;;;;5.46;100.00;102370.53;5073006;28;20049;-74
2021/12/20 06:25:20;;;;;;;23.20;4.10;;;;;;;5.38;100.00;102363.09;5069056;28;20053;-75
2021/12/20 06:27:49;;;;;;;25.88;4.15;;;;;;;5.34;100.00;102371.16;5070721;28;20141;-75
2021/12/20 06:30:15;;;;;;;28.02;4.43;;;;;;;5.26;100.00;102376.66;5079648;28;20542;-75
2021/12/20 06:32:44;;;;;;;27.13;5.13;;;;;;;5.21;100.00;102382.31;5070052;28;20056;-75
2021/12/20 06:35:30;;;;;;;21.73;3.50;;;;;;;5.13;100.00;102381.16;5083395;28;20535;-73
2021/12/20 06:38:01;;;;;;;15.85;3.80;;;;;;;5.10;100.00;102381.78;5071072;28;20156;-74
2021/12/20 06:40:30;;;;;;;23.88;3.92;;;;;;;5.05;100.00;102387.44;5080813;28;20134;-75
2021/12/20 06:42:57;;;;;;;20.95;3.42;;;;;;;5.01;100.00;102385.66;5067904;28;20651;-74
2021/12/20 06:45:25;;;;;;;23.05;4.20;;;;;;;4.96;100.00;102400.34;5073677;28;20129;-73
2021/12/20 06:47:51;;;;;;;22.08;4.88;;;;;;;4.93;100.00;102403.72;5069087;28;20139;-75
2021/12/20 06:50:18;;;;;;;25.65;3.95;;;;;;;4.89;100.00;102400.00;5069535;28;20044;-73
2021/12/20 06:52:45;;;;;;;19.48;4.70;;;;;;;4.86;100.00;102411.59;5070504;28;20509;-75
2021/12/20 06:55:11;;;;;;;27.05;4.47;;;;;;;4.85;100.00;102398.19;5082618;28;20048;-74
2021/12/20 06:57:39;;;;;;;22.48;4.70;;;;;;;4.79;100.00;102413.19;5078736;28;20106;-74
2021/12/20 07:00:07;;;;;;;27.02;5.20;;;;;;;4.72;100.00;102419.13;5075548;28;20060;-76
2021/12/20 07:02:34;;;;;;;31.60;5.85;;;;;;;4.69;100.00;102411.53;5070087;28;20080;-74
2021/12/20 07:05:01;;;;;;;21.98;4.20;;;;;;;4.64;100.00;102402.66;5079552;28;20131;-73
2021/12/20 07:07:29;;;;;;;32.85;5.68;;;;;;;4.57;100.00;102403.13;5067807;28;20068;-75
2021/12/20 07:09:55;;;;;;;24.45;4.40;;;;;;;4.52;100.00;102411.47;5070819;28;20874;-74
2021/12/20 07:12:22;;;;;;;29.45;5.22;;;;;;;4.45;100.00;102404.81;5077977;28;20505;-75
2021/12/20 07:14:50;;;;;;;18.88;4.28;;;;;;;4.45;100.00;102415.78;5068196;28;20048;-74
2021/12/20 07:17:19;;;;;;;22.77;4.93;;;;;;;4.42;100.00;102413.69;5067955;28;20095;-75
2021/12/20 07:19:45;;;;;;;22.08;4.25;;;;;;;4.34;100.00;102418.00;5080898;28;20044;-74
2021/12/20 07:22:13;;;;;;;23.75;3.58;;;;;;;4.33;100.00;102416.38;5078480;28;20052;-75
2021/12/20 07:24:39;;;;;;;24.15;4.32;;;;;;;4.29;100.00;102422.81;5083204;28;20071;-73
2021/12/20 07:27:08;;;;;;;34.75;4.45;;;;;;;4.24;100.00;102423.75;5067520;28;20135;-74
2021/12/20 07:29:36;;;;;;;20.00;3.78;;;;;;;4.19;100.00;102429.34;5080709;28;20135;-76
2021/12/20 07:32:04;;;;;;;27.30;5.50;;;;;;;4.15;100.00;102428.34;5067437;28;20055;-76
2021/12/20 07:34:30;;;;;;;24.58;5.10;;;;;;;4.13;100.00;102425.13;5079562;28;20056;-76
2021/12/20 07:36:57;;;;;;;31.00;5.18;;;;;;;4.11;100.00;102423.81;5076380;28;20135;-73
2021/12/20 07:39:23;;;;;;;26.77;5.35;;;;;;;4.10;100.00;102425.75;5070981;28;20127;-73
2021/12/20 07:41:51;;;;;;;24.52;4.07;;;;;;;4.07;100.00;102428.28;5067998;28;20051;-74
2021/12/20 07:44:18;;;;;;;18.77;3.83;;;;;;;4.00;100.00;102420.53;5067343;28;20052;-73
2021/12/20 07:46:45;;;;;;;26.35;5.35;;;;;;;3.97;100.00;102431.28;5069945;28;20044;-74
2021/12/20 07:49:12;;;;;;;29.05;7.65;;;;;;;3.94;100.00;102432.72;5084289;28;20048;-73
2021/12/20 07:51:38;;;;;;;30.25;8.93;;;;;;;3.90;100.00;102431.75;5074315;28;20131;-75
2021/12/20 07:54:05;;;;;;;37.47;10.00;;;;;;;3.91;100.00;102435.28;5081732;28;20135;-72
2021/12/20 07:56:32;;;;;;;28.83;6.70;;;;;;;3.91;100.00;102438.81;5085965;28;20127;-72
2021/12/20 07:58:58;;;;;;;26.77;5.72;;;;;;;3.87;100.00;102437.84;5082343;28;20691;-73
2021/12/20 08:01:26;;;;;;;32.45;9.25;;;;;;;3.82;100.00;102439.88;5069226;28;20573;-72
2021/12/20 08:03:53;;;;;;;27.92;9.13;;;;;;;3.81;100.00;102452.75;5076382;28;20133;-72
2021/12/20 08:06:21;;;;;;;29.98;8.18;;;;;;;3.80;100.00;102439.38;5070120;28;20113;-68
2021/12/20 08:08:47;;;;;;;23.83;6.25;;;;;;;3.77;100.00;102431.78;5068327;28;20059;-68
2021/12/20 08:11:14;;;;;;;27.08;7.68;;;;;;;3.75;100.00;102443.03;5073877;28;20052;-72
2021/12/20 08:13:44;;;;;;;25.85;5.82;;;;;;;3.77;100.00;102459.16;5069273;28;20139;-71
2021/12/20 08:16:15;;;;;;;30.70;6.75;;;;;;;3.77;100.00;102445.47;5068621;28;20053;-70
2021/12/20 08:18:44;;;;;;;33.08;6.97;;;;;;;3.75;100.00;102442.25;5068303;28;20555;-73
2021/12/20 08:21:11;;;;;;;31.52;7.28;;;;;;;3.74;100.00;102457.06;5067335;28;20052;-71
2021/12/20 08:23:38;;;;;;;25.58;6.28;;;;;;;3.72;100.00;102465.59;5068365;28;20249;-71
2021/12/20 08:26:05;;;;;;;29.38;7.15;;;;;;;3.73;100.00;102459.00;5082084;28;20100;-73
2021/12/20 08:28:32;;;;;;;31.17;6.82;;;;;;;3.78;100.00;102466.28;5071650;28;20419;-70
2021/12/20 08:30:58;;;;;;;22.58;6.32;;;;;;;3.79;100.00;102457.75;5073152;28;20044;-74
2021/12/20 08:33:25;;;;;;;32.25;7.70;;;;;;;3.81;100.00;102458.25;5079925;28;20543;-71
2021/12/20 08:35:53;;;;;;;34.30;9.70;;;;;;;3.89;100.00;102467.66;5071439;28;20044;-72
2021/12/20 08:38:20;;;;;;;36.72;12.35;;;;;;;3.86;100.00;102466.34;5066522;28;20467;-71
2021/12/20 08:40:47;;;;;;;41.05;14.95;;;;;;;3.90;100.00;102470.06;5069866;28;20052;-72
2021/12/20 08:43:16;;;;;;;33.45;13.52;;;;;;;3.93;100.00;102474.13;5077717;28;20429;-72
2021/12/20 08:45:43;;;;;;;36.45;12.98;;;;;;;3.94;100.00;102470.25;5068270;28;20048;-74
2021/12/20 08:48:10;;;;;;;28.20;8.50;;;;;;;3.94;100.00;102471.06;5066728;28;20048;-72
2021/12/20 08:50:37;;;;;;;31.45;8.07;;;;;;;3.92;100.00;102478.78;5069968;28;20477;-73
2021/12/20 08:53:04;;;;;;;24.45;8.15;;;;;;;3.94;100.00;102475.72;5081266;28;20126;-72
2021/12/20 08:55:31;;;;;;;32.83;7.38;;;;;;;3.89;100.00;102487.63;5071532;28;20058;-72
2021/12/20 08:57:58;;;;;;;27.40;6.57;;;;;;;3.81;100.00;102490.31;5089035;28;20060;-73
2021/12/20 09:00:28;;;;;;;29.35;8.05;;;;;;;3.81;100.00;102491.09;5084342;28;20058;-72
2021/12/20 09:02:55;;;;;;;26.02;7.20;;;;;;;3.80;100.00;102492.22;5078217;28;20084;-72
2021/12/20 09:05:23;;;;;;;38.85;9.90;;;;;;;3.85;100.00;102483.88;5078161;28;20570;-73
2021/12/20 09:07:50;;;;;;;47.80;16.38;;;;;;;3.88;100.00;102494.22;5072682;28;20451;-72
2021/12/20 09:10:17;;;;;;;65.88;19.20;;;;;;;3.97;100.00;102497.03;5075381;28;20778;-73
2021/12/20 09:12:45;;;;;;;44.47;17.30;;;;;;;4.04;100.00;102500.97;5068911;28;20052;-72
2021/12/20 09:15:16;;;;;;;47.95;17.15;;;;;;;4.18;100.00;102511.84;5077629;28;20121;-72
2021/12/20 09:17:48;;;;;;;40.42;14.07;;;;;;;4.33;100.00;102506.81;5079585;28;20136;-73
2021/12/20 09:20:17;;;;;;;39.53;11.88;;;;;;;4.45;100.00;102504.31;5092016;28;20056;-72
2021/12/20 09:22:51;;;;;;;37.13;12.32;;;;;;;4.48;100.00;102508.34;5071765;28;20474;-72
2021/12/20 09:25:20;;;;;;;44.42;11.05;;;;;;;4.55;100.00;102504.06;5073820;28;20348;-71
2021/12/20 09:27:47;;;;;;;45.50;10.75;;;;;;;4.65;100.00;102506.53;5074454;28;20072;-72
2021/12/20 09:30:14;;;;;;;35.67;10.50;;;;;;;4.82;100.00;102516.75;5084131;28;20572;-72
2021/12/20 09:32:41;;;;;;;46.47;11.70;;;;;;;4.96;100.00;102517.47;5069598;28;20094;-73
2021/12/20 09:35:08;;;;;;;27.30;8.95;;;;;;;5.15;100.00;102516.13;5071171;28;20139;-75
2021/12/20 09:37:36;;;;;;;29.23;8.90;;;;;;;5.32;100.00;102521.66;5071398;28;20457;-72
2021/12/20 09:40:05;;;;;;;34.30;9.10;;;;;;;5.47;100.00;102505.88;5068075;28;20529;-74
2021/12/20 09:42:34;;;;;;;34.88;10.88;;;;;;;5.66;100.00;102511.88;5063881;28;20048;-73
2021/12/20 09:45:02;;;;;;;36.20;9.38;;;;;;;5.77;100.00;102505.75;5072026;28;20152;-72
2021/12/20 09:47:33;;;;;;;40.42;9.85;;;;;;;5.92;100.00;102515.47;5069309;28;20079;-73
2021/12/20 09:50:02;;;;;;;33.75;9.00;;;;;;;6.03;100.00;102517.59;5079656;28;20996;-72
2021/12/20 09:52:29;;;;;;;42.47;8.05;;;;;;;6.12;100.00;102512.91;5075800;28;20143;-74
2021/12/20 09:54:56;;;;;;;31.48;7.70;;;;;;;6.20;100.00;102511.28;5075856;28;20062;-74
2021/12/20 09:57:23;;;;;;;44.10;8.73;;;;;;;6.34;100.00;102506.44;5075592;28;20711;-73
2021/12/20 09:59:51;;;;;;;28.02;7.03;;;;;;;6.46;100.00;102503.81;5072998;28;20526;-72
2021/12/20 10:02:20;;;;;;;33.25;8.95;;;;;;;6.57;100.00;102508.63;5076450;28;20060;-73
2021/12/20 10:04:47;;;;;;;36.53;9.30;;;;;;;6.67;100.00;102515.72;5076056;28;20040;-72
2021/12/20 10:07:20;;;;;;;32.53;7.60;;;;;;;6.77;100.00;102512.63;5072065;28;20166;-72
2021/12/20 10:09:48;;;;;;;32.20;7.65;;;;;;;6.92;100.00;102514.84;5068339;28;20052;-72
2021/12/20 10:12:24;;;;;;;30.02;7.55;;;;;;;7.02;100.00;102509.00;5067249;28;20072;-74
2021/12/20 10:15:12;;;;;;;27.33;6.57;;;;;;;7.11;100.00;102515.25;5069242;28;20062;-72
2021/12/20 10:17:56;;;;;;;32.42;8.23;;;;;;;7.20;100.00;102513.28;5072492;28;20080;-72
2021/12/20 10:20:26;;;;;;;28.83;6.53;;;;;;;7.32;100.00;102505.09;5059428;28;20048;-73
2021/12/20 10:23:06;;;;;;;26.13;7.22;;;;;;;7.44;100.00;102507.97;5059557;28;20683;-75
2021/12/20 10:25:34;;;;;;;30.45;6.75;;;;;;;7.59;100.00;102516.44;5068540;28;20151;-74
2021/12/20 10:28:08;;;;;;;22.15;6.13;;;;;;;7.70;100.00;102508.59;5060597;28;20059;-73
2021/12/20 10:30:40;;;;;;;43.22;6.68;;;;;;;7.80;100.00;102510.97;5062898;28;20433;-73
2021/12/20 10:33:21;;;;;;;35.63;7.28;;;;;;;7.92;100.00;102505.50;5063401;28;20054;-72
2021/12/20 10:35:52;;;;;;;31.83;7.95;;;;;;;8.07;100.00;102506.84;5074281;28;20047;-73
2021/12/20 10:38:22;;;;;;;25.23;6.10;;;;;;;8.25;100.00;102509.16;5074758;28;20523;-73
2021/12/20 10:40:59;;;;;;;28.23;6.15;;;;;;;8.41;100.00;102506.56;5075588;28;20060;-72
2021/12/20 10:43:50;;;;;;;29.55;6.20;;;;;;;8.62;100.00;102516.41;5059903;28;21583;-74
2021/12/20 10:46:19;;;;;;;29.02;7.20;;;;;;;8.87;100.00;102520.84;5060541;28;20413;-74
2021/12/20 10:48:49;;;;;;;35.83;6.93;;;;;;;9.18;100.00;102512.81;5058924;28;20836;-74
2021/12/20 10:51:24;;;;;;;27.45;6.05;;;;;;;10.15;100.00;102517.06;5063585;28;20059;-73
2021/12/20 10:53:59;;;;;;;31.23;6.93;;;;;;;13.36;95.44;102518.47;5058071;28;20549;-72
2021/12/20 10:56:33;;;;;;;30.17;6.22;;;;;;;15.96;82.52;102504.59;5064185;28;20056;-73
2021/12/20 10:59:05;;;;;;;28.95;6.13;;;;;;;18.07;69.46;102509.22;5060476;28;21073;-72
2021/12/20 11:04:10;;;;;;;29.70;6.68;;;;;;;20.96;56.39;102499.69;5059115;28;20055;-75
2021/12/20 11:06:59;;;;;;;28.20;5.85;;;;;;;22.02;51.44;102497.38;5064508;28;20092;-73
2021/12/20 11:09:55;;;;;;;25.40;5.80;;;;;;;23.05;49.08;102507.97;5060842;28;20062;-77
2021/12/20 11:12:25;;;;;;;28.20;6.28;;;;;;;23.78;45.70;102496.81;5060174;28;20053;-74
2021/12/20 11:15:08;;;;;;;21.10;5.53;;;;;;;24.31;40.01;102490.44;5059968;28;20098;-73
2021/12/20 11:17:39;;;;;;;29.02;6.85;;;;;;;25.10;42.49;102485.50;5061319;28;20048;-77
2021/12/20 11:20:06;;;;;;;19.75;5.70;;;;;;;25.50;41.39;102484.97;5061855;28;20416;-78
2021/12/20 11:22:34;;;;;;;21.70;5.68;;;;;;;25.61;40.59;102485.41;5060557;28;20150;-75
2021/12/20 11:25:06;;;;;;;29.95;6.35;;;;;;;25.88;36.44;102479.94;5062161;28;21953;-74
2021/12/20 11:27:35;;;;;;;25.52;6.45;;;;;;;26.52;39.33;102465.69;5063348;28;20044;-75
2021/12/20 11:30:13;;;;;;;22.75;6.47;;;;;;;26.54;32.24;102474.56;5065272;28;20051;-73
2021/12/20 11:32:41;;;;;;;27.05;6.55;;;;;;;26.96;36.44;102466.34;5061011;28;22182;-73
2021/12/20 11:35:14;;;;;;;21.02;6.32;;;;;;;27.17;36.63;102471.94;5056299;28;20516;-75
2021/12/20 11:37:41;;;;;;;21.65;5.85;;;;;;;27.01;36.41;102463.72;5062802;28;20050;-72
2021/12/20 11:40:10;;;;;;;29.17;7.35;;;;;;;25.93;36.59;102465.97;5061666;28;20047;-72